createdAt,value
2018-08-30T00:00:06.742Z,16.20
2018-08-30T00:02:34.101Z,16.00
2018-08-30T00:05:01.444Z,16.20
2018-08-30T00:07:28.800Z,16.10
2018-08-30T00:09:56.149Z,16.00
2018-08-30T00:12:23.501Z,15.90
2018-08-30T00:14:50.860Z,16.20
2018-08-30T00:17:18.223Z,16.00
2018-08-30T00:19:45.559Z,16.30
2018-08-30T00:22:12.918Z,16.10
2018-08-30T00:24:40.300Z,15.90
2018-08-30T00:27:07.696Z,16.00
2018-08-30T00:29:35.292Z,16.00
2018-08-30T00:32:02.674Z,16.00
2018-08-30T00:34:30.017Z,16.00
2018-08-30T00:36:57.373Z,15.90
2018-08-30T00:39:24.753Z,15.80
2018-08-30T00:41:52.132Z,15.70
2018-08-30T00:44:19.496Z,15.70
2018-08-30T00:46:46.843Z,15.60
2018-08-30T00:49:14.196Z,15.60
2018-08-30T00:51:41.588Z,15.50
2018-08-30T00:54:08.937Z,15.70
2018-08-30T00:56:36.282Z,15.60
2018-08-30T00:59:03.621Z,15.50
2018-08-30T01:01:31.004Z,15.50
2018-08-30T01:03:58.398Z,15.60
2018-08-30T01:06:25.754Z,15.60
2018-08-30T01:08:53.096Z,15.60
2018-08-30T01:11:20.424Z,15.60
2018-08-30T01:13:47.759Z,15.60
2018-08-30T01:16:15.076Z,15.40
2018-08-30T01:18:42.420Z,15.40
2018-08-30T01:21:09.766Z,15.40
2018-08-30T01:23:37.102Z,15.40
2018-08-30T01:26:04.683Z,15.30
2018-08-30T01:28:32.011Z,15.20
2018-08-30T01:30:59.396Z,15.20
2018-08-30T01:33:26.748Z,15.20
2018-08-30T01:35:54.099Z,15.20
2018-08-30T01:38:21.433Z,15.10
2018-08-30T01:40:48.877Z,15.00
2018-08-30T01:43:16.230Z,14.90
2018-08-30T01:45:43.597Z,15.00
2018-08-30T01:48:11.004Z,15.10
2018-08-30T01:50:38.345Z,15.00
2018-08-30T01:53:05.668Z,15.30
2018-08-30T01:55:32.992Z,15.40
2018-08-30T01:58:00.315Z,15.40
2018-08-30T02:00:27.653Z,15.50
2018-08-30T02:02:55.009Z,15.40
2018-08-30T02:05:22.347Z,15.40
2018-08-30T02:07:49.706Z,15.40
2018-08-30T02:10:17.072Z,15.50
2018-08-30T02:12:44.403Z,15.30
2018-08-30T02:15:12.004Z,15.20
2018-08-30T02:17:39.522Z,15.30
2018-08-30T02:20:06.978Z,15.20
2018-08-30T02:22:34.315Z,15.20
2018-08-30T02:25:01.657Z,15.30
2018-08-30T02:27:28.968Z,15.40
2018-08-30T02:29:56.283Z,15.30
2018-08-30T02:32:23.629Z,15.50
2018-08-30T02:34:50.968Z,15.40
2018-08-30T02:37:18.292Z,15.20
2018-08-30T02:39:45.615Z,15.10
2018-08-30T02:42:12.975Z,15.00
2018-08-30T02:44:40.300Z,15.00
2018-08-30T02:47:07.867Z,15.20
2018-08-30T02:49:35.215Z,15.00
2018-08-30T02:52:02.624Z,15.00
2018-08-30T02:54:30.575Z,14.90
2018-08-30T02:56:57.932Z,15.10
2018-08-30T02:59:25.283Z,15.00
2018-08-30T03:01:52.628Z,15.00
2018-08-30T03:04:19.958Z,15.00
2018-08-30T03:06:47.288Z,14.80
2018-08-30T03:09:14.637Z,14.80
2018-08-30T03:11:42.024Z,14.70
2018-08-30T03:14:09.388Z,14.70
2018-08-30T03:16:36.748Z,14.60
2018-08-30T03:19:04.093Z,14.40
2018-08-30T03:21:31.438Z,14.30
2018-08-30T03:23:58.972Z,14.80
2018-08-30T03:26:26.320Z,14.70
2018-08-30T03:28:53.667Z,14.60
2018-08-30T03:31:21.005Z,14.40
2018-08-30T03:33:48.344Z,14.40
2018-08-30T03:36:15.701Z,14.30
2018-08-30T03:38:43.033Z,14.40
2018-08-30T03:41:10.385Z,14.30
2018-08-30T03:43:37.724Z,14.30
2018-08-30T03:46:05.072Z,14.30
2018-08-30T03:48:32.444Z,14.10
2018-08-30T03:50:59.788Z,14.10
2018-08-30T03:53:27.128Z,14.10
2018-08-30T03:55:54.443Z,14.00
2018-08-30T03:58:21.765Z,14.20
2018-08-30T04:00:49.120Z,14.10
2018-08-30T04:03:16.464Z,14.00
2018-08-30T04:05:43.819Z,14.00
2018-08-30T04:08:11.148Z,13.90
2018-08-30T04:10:38.471Z,14.00
2018-08-30T04:13:05.825Z,13.90
2018-08-30T04:15:33.171Z,14.00
2018-08-30T04:18:00.535Z,13.80
2018-08-30T04:20:28.044Z,13.90
2018-08-30T04:22:55.552Z,14.00
2018-08-30T04:25:22.947Z,13.90
2018-08-30T04:27:50.280Z,14.00
2018-08-30T04:30:17.642Z,13.90
2018-08-30T04:32:45.244Z,13.80
2018-08-30T04:35:12.592Z,13.70
2018-08-30T04:37:39.943Z,13.70
2018-08-30T04:40:07.287Z,13.90
2018-08-30T04:42:34.669Z,13.80
2018-08-30T04:45:02.033Z,14.10
2018-08-30T04:47:29.411Z,14.10
2018-08-30T04:49:56.739Z,14.00
2018-08-30T04:52:24.094Z,13.80
2018-08-30T04:54:51.456Z,14.00
2018-08-30T04:57:18.800Z,14.00
2018-08-30T04:59:46.175Z,14.10
2018-08-30T05:02:13.520Z,14.00
2018-08-30T05:04:40.895Z,14.00
2018-08-30T05:07:08.240Z,14.10
2018-08-30T05:09:35.564Z,14.10
2018-08-30T05:12:02.906Z,14.20
2018-08-30T05:14:30.223Z,14.20
2018-08-30T05:16:57.558Z,14.10
2018-08-30T05:19:24.944Z,14.10
2018-08-30T05:21:52.282Z,14.40
2018-08-30T05:24:19.624Z,14.40
2018-08-30T05:26:46.979Z,14.60
2018-08-30T05:29:14.315Z,14.70
2018-08-30T05:31:41.668Z,14.90
2018-08-30T05:34:08.997Z,15.00
2018-08-30T05:36:36.343Z,15.10
2018-08-30T05:39:05.503Z,15.00
2018-08-30T05:41:32.830Z,15.40
2018-08-30T05:44:00.233Z,15.60
2018-08-30T05:46:27.583Z,15.70
2018-08-30T05:48:54.927Z,16.20
2018-08-30T05:51:22.272Z,16.30
2018-08-30T05:53:49.658Z,16.40
2018-08-30T05:56:17.015Z,16.60
2018-08-30T05:58:44.371Z,16.90
2018-08-30T06:01:11.759Z,17.10
2018-08-30T06:03:39.092Z,17.40
2018-08-30T06:06:06.468Z,17.60
2018-08-30T06:08:33.816Z,17.80
2018-08-30T06:11:01.156Z,17.90
2018-08-30T06:13:28.512Z,18.30
2018-08-30T06:15:55.864Z,18.40
2018-08-30T06:18:23.577Z,18.80
2018-08-30T06:20:51.090Z,18.90
2018-08-30T06:23:18.435Z,19.10
2018-08-30T06:25:45.756Z,19.10
2018-08-30T06:28:13.085Z,19.30
2018-08-30T06:30:40.567Z,19.10
2018-08-30T06:33:07.914Z,19.00
2018-08-30T06:35:35.266Z,19.00
2018-08-30T06:38:02.643Z,19.30
2018-08-30T06:40:30.036Z,19.40
2018-08-30T06:42:57.373Z,18.80
2018-08-30T06:45:24.741Z,18.50
2018-08-30T06:47:52.049Z,18.20
2018-08-30T06:50:20.323Z,17.90
2018-08-30T06:52:47.664Z,18.00
2018-08-30T06:55:15.024Z,18.30
2018-08-30T06:57:42.351Z,18.60
2018-08-30T07:00:09.701Z,19.00
2018-08-30T07:02:37.024Z,19.30
2018-08-30T07:05:04.587Z,19.90
2018-08-30T07:07:31.930Z,19.60
2018-08-30T07:09:59.356Z,20.00
2018-08-30T07:12:26.699Z,20.50
2018-08-30T07:14:54.112Z,21.30
2018-08-30T07:17:21.404Z,21.30
2018-08-30T07:19:48.744Z,21.80
2018-08-30T07:22:16.072Z,22.00
2018-08-30T07:24:43.404Z,21.70
2018-08-30T07:27:10.898Z,21.00
2018-08-30T07:29:38.228Z,21.00
2018-08-30T07:32:06.037Z,20.70
2018-08-30T07:34:33.483Z,20.30
2018-08-30T07:37:00.826Z,19.90
2018-08-30T07:39:28.152Z,19.80
2018-08-30T07:41:55.494Z,19.70
2018-08-30T07:44:22.937Z,19.70
2018-08-30T07:46:50.179Z,20.30
2018-08-30T07:49:17.511Z,20.40
2018-08-30T07:51:44.886Z,20.50
2018-08-30T07:54:12.224Z,20.50
2018-08-30T07:56:39.711Z,20.90
2018-08-30T07:59:07.047Z,20.30
2018-08-30T08:01:34.388Z,20.70
2018-08-30T08:04:01.728Z,21.40
2018-08-30T08:06:29.051Z,20.80
2018-08-30T08:08:56.380Z,20.70
2018-08-30T08:11:23.757Z,20.60
2018-08-30T08:13:51.077Z,20.60
2018-08-30T08:16:18.404Z,20.50
2018-08-30T08:18:45.757Z,19.90
2018-08-30T08:21:13.083Z,19.80
2018-08-30T08:23:40.406Z,19.50
2018-08-30T08:26:07.745Z,19.30
2018-08-30T08:28:35.088Z,20.00
2018-08-30T08:31:02.444Z,20.20
2018-08-30T08:33:29.815Z,19.90
2018-08-30T08:35:57.268Z,20.20
2018-08-30T08:38:24.595Z,20.60
2018-08-30T08:40:51.953Z,21.20
2018-08-30T08:43:19.300Z,21.50
2018-08-30T08:45:46.647Z,21.80
2018-08-30T08:48:14.007Z,21.90
2018-08-30T08:50:41.424Z,21.70
2018-08-30T08:53:08.752Z,22.30
2018-08-30T08:55:36.095Z,22.80
2018-08-30T08:58:03.572Z,21.90
2018-08-30T09:00:30.925Z,23.10
2018-08-30T09:02:58.305Z,23.50
2018-08-30T09:05:25.662Z,22.90
2018-08-30T09:07:53.018Z,21.80
2018-08-30T09:10:20.350Z,21.10
2018-08-30T09:12:47.684Z,20.20
2018-08-30T09:15:15.013Z,20.40
2018-08-30T09:17:42.345Z,20.80
2018-08-30T09:20:09.695Z,21.60
2018-08-30T09:22:37.024Z,21.50
2018-08-30T09:25:04.409Z,22.20
2018-08-30T09:27:31.755Z,22.20
2018-08-30T09:29:59.183Z,22.60
2018-08-30T09:32:26.728Z,22.30
2018-08-30T09:34:54.126Z,21.30
2018-08-30T09:37:21.462Z,20.80
2018-08-30T09:39:48.817Z,20.50
2018-08-30T09:42:16.259Z,20.40
2018-08-30T09:44:43.634Z,20.20
2018-08-30T09:47:10.967Z,20.40
2018-08-30T09:49:38.361Z,20.50
2018-08-30T09:52:05.708Z,20.40
2018-08-30T09:54:33.032Z,20.30
2018-08-30T09:57:00.473Z,20.20
2018-08-30T09:59:27.719Z,20.00
2018-08-30T10:02:01.640Z,20.00
2018-08-30T10:04:29.152Z,19.80
2018-08-30T10:06:56.723Z,19.90
2018-08-30T10:09:24.062Z,19.90
2018-08-30T10:11:51.408Z,19.50
2018-08-30T10:14:18.762Z,20.30
2018-08-30T10:16:46.077Z,20.30
2018-08-30T10:19:13.693Z,20.50
2018-08-30T10:21:41.095Z,20.70
2018-08-30T10:24:08.420Z,20.00
2018-08-30T10:26:35.804Z,20.20
2018-08-30T10:29:03.157Z,20.50
2018-08-30T10:31:30.567Z,19.50
2018-08-30T10:33:57.911Z,18.90
2018-08-30T10:36:25.266Z,19.30
2018-08-30T10:38:52.633Z,19.80
2018-08-30T10:41:19.971Z,20.70
2018-08-30T10:43:47.357Z,20.20
2018-08-30T10:46:14.692Z,20.40
2018-08-30T10:48:42.035Z,20.70
2018-08-30T10:51:09.374Z,20.40
2018-08-30T10:53:36.730Z,19.20
2018-08-30T10:56:04.090Z,19.40
2018-08-30T10:58:31.481Z,19.60
2018-08-30T11:00:58.842Z,19.50
2018-08-30T11:03:26.251Z,19.60
2018-08-30T11:05:53.632Z,20.30
2018-08-30T11:08:20.974Z,20.20
2018-08-30T11:10:48.319Z,20.60
2018-08-30T11:13:15.726Z,19.50
2018-08-30T11:15:43.096Z,19.20
2018-08-30T11:18:10.452Z,19.10
2018-08-30T11:20:37.803Z,19.00
2018-08-30T11:23:05.128Z,19.60
2018-08-30T11:25:32.521Z,19.90
2018-08-30T11:27:59.844Z,19.80
2018-08-30T11:30:27.188Z,19.70
2018-08-30T11:32:54.521Z,19.60
2018-08-30T11:35:21.951Z,19.70
2018-08-30T11:37:49.287Z,19.90
2018-08-30T11:40:16.616Z,20.00
2018-08-30T11:42:44.107Z,20.20
2018-08-30T11:45:11.453Z,19.70
2018-08-30T11:47:38.808Z,20.20
2018-08-30T11:50:06.164Z,19.80
2018-08-30T11:52:33.624Z,19.70
2018-08-30T11:55:01.145Z,20.00
2018-08-30T11:57:28.560Z,19.70
2018-08-30T11:59:56.036Z,19.70
2018-08-30T12:02:23.569Z,19.10
2018-08-30T12:04:51.235Z,19.30
2018-08-30T12:07:18.712Z,19.40
2018-08-30T12:09:46.753Z,19.30
2018-08-30T12:12:14.112Z,19.20
2018-08-30T12:14:41.466Z,18.70
2018-08-30T12:17:08.799Z,18.90
2018-08-30T12:19:36.155Z,19.00
2018-08-30T12:22:03.481Z,19.30
2018-08-30T12:24:30.835Z,18.80
2018-08-30T12:26:58.252Z,19.20
2018-08-30T12:29:25.679Z,18.80
2018-08-30T12:31:53.035Z,19.00
2018-08-30T12:34:20.473Z,19.20
2018-08-30T12:36:47.824Z,19.40
2018-08-30T12:39:15.210Z,19.30
2018-08-30T12:41:42.557Z,19.20
2018-08-30T12:44:10.178Z,20.00
2018-08-30T12:46:37.546Z,20.10
2018-08-30T12:49:04.836Z,19.90
2018-08-30T12:51:32.521Z,19.80
2018-08-30T12:53:59.568Z,19.60
2018-08-30T12:56:27.029Z,19.00
2018-08-30T12:59:00.085Z,19.00
2018-08-30T13:01:27.474Z,19.50
2018-08-30T13:03:54.902Z,19.30
2018-08-30T13:06:22.231Z,18.90
2018-08-30T13:08:49.781Z,18.90
2018-08-30T13:11:17.190Z,18.80
2018-08-30T13:13:44.692Z,18.50
2018-08-30T13:16:12.097Z,18.60
2018-08-30T13:18:39.423Z,18.50
2018-08-30T13:21:06.976Z,18.30
2018-08-30T13:23:34.246Z,18.50
2018-08-30T13:26:01.662Z,18.50
2018-08-30T13:28:29.576Z,18.60
2018-08-30T13:30:57.043Z,18.80
2018-08-30T13:33:24.693Z,19.10
2018-08-30T13:35:51.918Z,19.30
2018-08-30T13:38:19.315Z,19.40
2018-08-30T13:40:46.746Z,19.50
2018-08-30T13:43:14.021Z,18.90
2018-08-30T13:45:41.404Z,19.20
2018-08-30T13:48:08.690Z,19.40
2018-08-30T13:50:36.125Z,19.40
2018-08-30T13:53:03.344Z,19.20
2018-08-30T13:55:30.797Z,19.20
2018-08-30T13:57:58.460Z,19.70
2018-08-30T14:00:25.832Z,19.30
2018-08-30T14:02:52.912Z,19.00
2018-08-30T14:05:20.297Z,18.80
2018-08-30T14:07:47.566Z,18.50
2018-08-30T14:10:15.002Z,18.60
2018-08-30T14:12:42.466Z,18.70
2018-08-30T14:15:09.974Z,18.90
2018-08-30T14:17:36.963Z,19.00
2018-08-30T14:20:04.340Z,18.90
2018-08-30T14:22:31.692Z,18.70
2018-08-30T14:24:59.071Z,18.60
2018-08-30T14:27:26.425Z,18.50
2018-08-30T14:29:53.776Z,18.50
2018-08-30T14:32:21.174Z,18.60
2018-08-30T14:34:48.511Z,18.70
2018-08-30T14:37:15.960Z,18.70
2018-08-30T14:39:43.219Z,18.90
2018-08-30T14:42:10.560Z,18.90
2018-08-30T14:44:37.947Z,18.60
2018-08-30T14:47:05.744Z,18.30
2018-08-30T14:49:32.919Z,18.30
2018-08-30T14:52:00.319Z,18.30
2018-08-30T14:54:27.712Z,18.30
2018-08-30T14:56:55.086Z,18.10
2018-08-30T14:59:22.500Z,18.30
2018-08-30T15:01:49.792Z,18.30
2018-08-30T15:04:17.157Z,18.40
2018-08-30T15:06:45.488Z,18.50
2018-08-30T15:09:13.952Z,18.30
2018-08-30T15:11:41.291Z,17.90
2018-08-30T15:14:08.631Z,18.90
2018-08-30T15:16:35.998Z,18.60
2018-08-30T15:19:03.328Z,18.70
2018-08-30T15:21:30.683Z,18.60
2018-08-30T15:23:58.153Z,18.40
2018-08-30T15:26:25.504Z,18.00
2018-08-30T15:28:52.784Z,18.00
2018-08-30T15:31:20.116Z,18.20
2018-08-30T15:33:47.470Z,18.30
2018-08-30T15:36:14.817Z,18.20
2018-08-30T15:38:42.153Z,18.20
2018-08-30T15:41:09.544Z,18.40
2018-08-30T15:43:37.256Z,18.50
2018-08-30T15:46:04.728Z,18.40
2018-08-30T15:48:32.128Z,18.40
2018-08-30T15:50:59.450Z,18.60
2018-08-30T15:53:26.889Z,18.20
2018-08-30T15:55:54.121Z,18.30
2018-08-30T15:58:21.479Z,18.10
2018-08-30T16:00:48.834Z,18.50
2018-08-30T16:03:16.204Z,18.20
2018-08-30T16:05:43.549Z,18.30
2018-08-30T16:08:10.944Z,18.20
2018-08-30T16:10:38.291Z,18.00
2018-08-30T16:13:05.673Z,18.10
2018-08-30T16:15:33.023Z,17.90
2018-08-30T16:18:00.394Z,17.90
2018-08-30T16:20:27.787Z,17.80
2018-08-30T16:23:02.253Z,17.80
2018-08-30T16:25:29.427Z,17.80
2018-08-30T16:27:56.850Z,17.80
2018-08-30T16:30:24.556Z,17.90
2018-08-30T16:32:51.842Z,18.00
2018-08-30T16:35:19.324Z,17.90
2018-08-30T16:37:46.555Z,18.10
2018-08-30T16:40:14.096Z,17.90
2018-08-30T16:42:41.455Z,17.80
2018-08-30T16:45:08.823Z,17.60
2018-08-30T16:47:36.682Z,17.70
2018-08-30T16:50:04.064Z,17.70
2018-08-30T16:52:31.502Z,17.60
2018-08-30T16:54:58.875Z,17.40
2018-08-30T16:57:26.248Z,17.30
2018-08-30T16:59:53.605Z,17.30
2018-08-30T17:02:21.100Z,17.30
2018-08-30T17:04:48.332Z,17.40
2018-08-30T17:07:15.783Z,17.20
2018-08-30T17:09:43.185Z,17.10
2018-08-30T17:12:10.677Z,17.20
2018-08-30T17:14:38.122Z,17.10
2018-08-30T17:17:05.496Z,17.10
2018-08-30T17:19:32.829Z,17.00
2018-08-30T17:22:00.208Z,16.90
2018-08-30T17:24:27.565Z,16.90
2018-08-30T17:26:55.298Z,16.90
2018-08-30T17:29:22.661Z,17.00
2018-08-30T17:31:50.017Z,16.80
2018-08-30T17:34:17.364Z,16.80
2018-08-30T17:36:44.749Z,16.70
2018-08-30T17:39:12.198Z,16.70
2018-08-30T17:41:39.524Z,18.50
2018-08-30T17:44:07.403Z,19.50
2018-08-30T17:46:34.780Z,19.30
2018-08-30T17:49:02.200Z,18.50
2018-08-30T17:51:29.617Z,17.20
2018-08-30T17:53:56.964Z,16.80
2018-08-30T17:56:24.394Z,16.60
2018-08-30T17:58:51.788Z,16.50
2018-08-30T18:01:19.213Z,16.40
2018-08-30T18:03:46.567Z,16.40
2018-08-30T18:06:13.943Z,16.20
2018-08-30T18:08:41.324Z,16.20
2018-08-30T18:11:08.693Z,16.20
2018-08-30T18:13:36.125Z,16.00
2018-08-30T18:16:03.475Z,16.00
2018-08-30T18:18:30.894Z,15.90
2018-08-30T18:20:58.216Z,15.80
2018-08-30T18:23:25.563Z,15.80
2018-08-30T18:25:52.917Z,15.70
2018-08-30T18:28:20.264Z,15.60
2018-08-30T18:30:47.615Z,15.60
2018-08-30T18:33:14.963Z,15.50
2018-08-30T18:35:42.290Z,15.50
2018-08-30T18:38:09.634Z,15.40
2018-08-30T18:40:37.043Z,15.30
2018-08-30T18:43:04.617Z,15.30
2018-08-30T18:45:31.998Z,15.30
2018-08-30T18:47:59.728Z,15.20
2018-08-30T18:50:27.069Z,15.20
2018-08-30T18:52:54.437Z,15.10
2018-08-30T18:55:21.786Z,15.10
2018-08-30T18:57:49.138Z,15.00
2018-08-30T19:00:16.464Z,15.00
2018-08-30T19:02:43.916Z,15.00
2018-08-30T19:05:11.297Z,14.90
2018-08-30T19:07:38.964Z,14.90
2018-08-30T19:10:06.363Z,14.90
2018-08-30T19:12:33.704Z,14.80
2018-08-30T19:15:06.037Z,14.70
2018-08-30T19:17:39.241Z,14.70
2018-08-30T19:20:06.896Z,14.80
2018-08-30T19:22:34.297Z,14.70
2018-08-30T19:25:07.301Z,14.70
2018-08-30T19:27:35.125Z,14.60
2018-08-30T19:30:08.204Z,14.60
2018-08-30T19:32:35.623Z,14.40
2018-08-30T19:35:08.714Z,14.40
2018-08-30T19:37:36.428Z,14.40
2018-08-30T19:40:03.971Z,14.30
2018-08-30T19:42:31.479Z,14.20
2018-08-30T19:44:58.866Z,14.20
2018-08-30T19:47:26.299Z,14.00
2018-08-30T19:49:53.677Z,13.80
2018-08-30T19:52:21.104Z,13.90
2018-08-30T19:54:48.465Z,13.90
2018-08-30T19:57:15.791Z,13.70
2018-08-30T19:59:43.134Z,13.70
2018-08-30T20:02:10.495Z,13.60
2018-08-30T20:04:37.844Z,13.70
2018-08-30T20:07:05.170Z,13.60
2018-08-30T20:09:32.519Z,13.60
2018-08-30T20:11:59.850Z,13.50
2018-08-30T20:14:27.218Z,13.50
2018-08-30T20:16:54.547Z,13.40
2018-08-30T20:19:21.876Z,13.40
2018-08-30T20:21:49.209Z,13.30
2018-08-30T20:24:16.749Z,13.20
2018-08-30T20:26:44.082Z,13.20
2018-08-30T20:29:11.423Z,13.20
2018-08-30T20:31:38.779Z,13.10
2018-08-30T20:34:06.175Z,13.00
2018-08-30T20:36:33.535Z,13.70
2018-08-30T20:39:00.916Z,12.90
2018-08-30T20:41:28.243Z,13.00
2018-08-30T20:43:55.587Z,13.00
2018-08-30T20:46:23.050Z,12.90
2018-08-30T20:48:50.402Z,12.80
2018-08-30T20:51:17.771Z,12.80
2018-08-30T20:53:45.114Z,12.80
2018-08-30T20:56:12.504Z,12.80
2018-08-30T20:58:39.875Z,12.80
2018-08-30T21:01:07.209Z,12.80
2018-08-30T21:03:34.536Z,12.80
2018-08-30T21:06:01.904Z,12.80
2018-08-30T21:08:29.256Z,12.70
2018-08-30T21:10:56.607Z,12.40
2018-08-30T21:13:23.949Z,12.40
2018-08-30T21:15:51.284Z,12.40
2018-08-30T21:18:18.673Z,12.40
2018-08-30T21:20:46.006Z,12.50
2018-08-30T21:23:13.360Z,12.50
2018-08-30T21:25:40.704Z,12.50
2018-08-30T21:28:08.040Z,12.50
2018-08-30T21:30:35.549Z,12.40
2018-08-30T21:33:02.896Z,12.40
2018-08-30T21:35:30.307Z,12.30
2018-08-30T21:37:57.715Z,12.20
2018-08-30T21:40:25.088Z,12.20
2018-08-30T21:42:52.491Z,12.20
2018-08-30T21:45:19.824Z,12.30
2018-08-30T21:47:47.160Z,12.40
2018-08-30T21:50:14.489Z,12.30
2018-08-30T21:52:41.823Z,12.30
2018-08-30T21:55:09.216Z,12.30
2018-08-30T21:57:36.547Z,12.20
2018-08-30T22:00:05.115Z,12.30
2018-08-30T22:02:32.483Z,12.30
2018-08-30T22:04:59.840Z,12.20
2018-08-30T22:07:27.279Z,12.10
2018-08-30T22:09:54.629Z,11.90
2018-08-30T22:12:21.963Z,11.90
2018-08-30T22:14:49.272Z,11.90
2018-08-30T22:17:16.621Z,12.00
2018-08-30T22:19:43.955Z,12.00
2018-08-30T22:22:11.292Z,11.90
2018-08-30T22:24:38.627Z,11.90
2018-08-30T22:27:06.068Z,11.90
2018-08-30T22:29:33.464Z,12.00
2018-08-30T22:32:00.823Z,12.00
2018-08-30T22:34:28.181Z,11.90
2018-08-30T22:36:55.513Z,11.90
2018-08-30T22:39:22.849Z,11.90
2018-08-30T22:41:50.173Z,11.90
2018-08-30T22:44:17.513Z,11.90
2018-08-30T22:46:44.880Z,11.90
2018-08-30T22:49:12.217Z,11.80
2018-08-30T22:51:39.542Z,11.80
2018-08-30T22:54:06.879Z,11.70
2018-08-30T22:56:34.232Z,11.70
2018-08-30T22:59:01.568Z,11.70
2018-08-30T23:01:28.948Z,11.60
2018-08-30T23:03:56.275Z,11.60
2018-08-30T23:06:23.600Z,11.50
2018-08-30T23:08:50.940Z,11.50
2018-08-30T23:11:18.463Z,11.50
2018-08-30T23:13:45.801Z,11.60
2018-08-30T23:16:13.202Z,11.50
2018-08-30T23:18:40.530Z,11.50
2018-08-30T23:21:07.860Z,11.50
2018-08-30T23:23:35.222Z,11.40
2018-08-30T23:26:02.604Z,11.50
2018-08-30T23:28:29.928Z,11.50
2018-08-30T23:30:57.261Z,11.50
2018-08-30T23:33:24.599Z,11.40
2018-08-30T23:35:51.952Z,11.20
2018-08-30T23:38:19.275Z,11.20
2018-08-30T23:40:46.608Z,11.30
2018-08-30T23:43:13.953Z,11.30
2018-08-30T23:45:41.297Z,11.30
2018-08-30T23:48:08.636Z,11.20
2018-08-30T23:50:35.971Z,11.20
2018-08-30T23:53:03.371Z,11.20
2018-08-30T23:55:30.730Z,11.20
2018-08-30T23:58:09.761Z,11.20
